createdAt,value
2019-05-12T00:00:39.304Z,2.13
2019-05-12T00:03:08.707Z,1.83
2019-05-12T00:05:38.314Z,2.13
2019-05-12T00:08:08.209Z,2.13
2019-05-12T00:10:38.695Z,2.17
2019-05-12T00:13:08.371Z,2.47
2019-05-12T00:15:38.431Z,1.93
2019-05-12T00:18:09.064Z,2.20
2019-05-12T00:20:38.671Z,2.37
2019-05-12T00:23:23.245Z,2.23
2019-05-12T00:25:38.733Z,2.23
2019-05-12T00:28:07.967Z,2.00
2019-05-12T00:30:39.156Z,2.63
2019-05-12T00:33:09.219Z,2.10
2019-05-12T00:35:38.626Z,2.30
2019-05-12T00:38:08.938Z,1.70
2019-05-12T00:40:39.158Z,2.93
2019-05-12T00:43:09.195Z,2.40
2019-05-12T00:45:39.186Z,2.27
2019-05-12T00:48:09.122Z,2.03
2019-05-12T00:50:38.735Z,2.03
2019-05-12T00:53:09.207Z,2.13
2019-05-12T00:55:38.515Z,2.17
2019-05-12T00:58:08.843Z,2.03
2019-05-12T01:00:40.696Z,1.20
2019-05-12T01:03:09.244Z,2.50
2019-05-12T01:05:38.638Z,1.93
2019-05-12T01:08:09.163Z,2.27
2019-05-12T01:10:39.258Z,1.97
2019-05-12T01:13:08.683Z,2.03
2019-05-12T01:15:38.333Z,2.00
2019-05-12T01:18:09.392Z,1.87
2019-05-12T01:20:39.009Z,2.33
2019-05-12T01:23:08.615Z,2.67
2019-05-12T01:25:39.649Z,2.27
2019-05-12T01:28:08.598Z,2.07
2019-05-12T01:30:39.066Z,2.20
2019-05-12T01:33:08.712Z,2.40
2019-05-12T01:35:38.803Z,2.23
2019-05-12T01:38:08.410Z,2.10
2019-05-12T01:40:39.308Z,2.83
2019-05-12T01:43:08.869Z,1.97
2019-05-12T01:45:38.373Z,2.10
2019-05-12T01:48:08.846Z,2.60
2019-05-12T01:50:38.847Z,2.60
2019-05-12T01:53:08.529Z,2.50
2019-05-12T01:55:38.787Z,2.30
2019-05-12T01:58:08.925Z,1.93
2019-05-12T02:00:39.108Z,2.10
2019-05-12T02:03:09.332Z,2.43
2019-05-12T02:05:40.111Z,2.17
2019-05-12T02:08:10.723Z,2.17
2019-05-12T02:10:39.630Z,2.00
2019-05-12T02:13:08.433Z,2.03
2019-05-12T02:15:38.331Z,2.00
2019-05-12T02:18:09.020Z,2.47
2019-05-12T02:20:38.457Z,2.40
2019-05-12T02:23:08.849Z,2.20
2019-05-12T02:25:38.476Z,2.00
2019-05-12T02:28:09.322Z,2.00
2019-05-12T02:30:41.552Z,2.47
2019-05-12T02:33:08.745Z,2.03
2019-05-12T02:35:37.645Z,2.20
2019-05-12T02:38:06.746Z,2.50
2019-05-12T02:40:35.641Z,2.00
2019-05-12T02:43:05.712Z,2.30
2019-05-12T02:45:36.024Z,2.10
2019-05-12T02:48:05.837Z,2.00
2019-05-12T02:50:37.558Z,2.10
2019-05-12T02:53:07.375Z,2.13
2019-05-12T02:55:37.236Z,2.17
2019-05-12T02:58:06.669Z,1.70
2019-05-12T03:00:36.687Z,2.73
2019-05-12T03:03:09.135Z,2.63
2019-05-12T03:05:39.951Z,2.83
2019-05-12T03:08:09.021Z,2.23
2019-05-12T03:10:37.921Z,2.60
2019-05-12T03:13:06.913Z,1.90
2019-05-12T03:15:37.444Z,1.87
2019-05-12T03:18:07.078Z,2.03
2019-05-12T03:20:36.371Z,2.00
2019-05-12T03:23:06.741Z,1.97
2019-05-12T03:25:36.924Z,2.33
2019-05-12T03:28:08.413Z,2.27
2019-05-12T03:30:40.099Z,2.00
2019-05-12T03:33:10.515Z,1.97
2019-05-12T03:35:46.067Z,3.03
2019-05-12T03:38:08.709Z,2.53
2019-05-12T03:40:38.763Z,2.53
2019-05-12T03:43:08.045Z,2.27
2019-05-12T03:45:37.139Z,2.17
2019-05-12T03:48:06.541Z,2.27
2019-05-12T03:50:36.328Z,3.10
2019-05-12T03:53:09.792Z,2.13
2019-05-12T03:55:42.009Z,2.00
2019-05-12T03:58:07.434Z,2.70
2019-05-12T04:00:36.738Z,2.43
2019-05-12T04:03:06.449Z,2.00
2019-05-12T04:05:36.268Z,2.40
2019-05-12T04:08:06.518Z,2.30
2019-05-12T04:10:37.023Z,2.57
2019-05-12T04:13:06.418Z,2.93
2019-05-12T04:15:36.015Z,2.17
2019-05-12T04:18:06.120Z,1.70
2019-05-12T04:20:36.383Z,2.03
2019-05-12T04:23:06.710Z,1.87
2019-05-12T04:25:51.130Z,2.07
2019-05-12T04:28:06.722Z,1.63
2019-05-12T04:30:36.053Z,1.80
2019-05-12T04:33:06.024Z,1.50
2019-05-12T04:35:35.934Z,2.20
2019-05-12T04:38:05.769Z,1.70
2019-05-12T04:40:36.130Z,1.70
2019-05-12T04:43:06.623Z,1.97
2019-05-12T04:45:36.363Z,2.10
2019-05-12T04:48:06.379Z,1.93
2019-05-12T04:50:36.373Z,2.10
2019-05-12T04:53:06.915Z,1.70
2019-05-12T04:55:36.588Z,1.60
2019-05-12T04:58:06.249Z,1.80
2019-05-12T05:00:36.014Z,2.33
2019-05-12T05:03:06.095Z,1.70
2019-05-12T05:05:36.373Z,2.07
2019-05-12T05:08:05.711Z,1.60
2019-05-12T05:10:35.145Z,2.13
2019-05-12T05:13:05.060Z,2.80
2019-05-12T05:15:35.491Z,1.60
2019-05-12T05:18:06.776Z,1.63
2019-05-12T05:20:35.562Z,1.63
2019-05-12T05:23:04.966Z,2.33
2019-05-12T05:25:35.272Z,1.90
2019-05-12T05:28:05.074Z,2.00
2019-05-12T05:30:34.511Z,1.60
2019-05-12T05:33:05.076Z,1.80
2019-05-12T05:35:39.614Z,1.50
2019-05-12T05:38:10.682Z,1.77
2019-05-12T05:40:36.737Z,2.00
2019-05-12T05:43:17.895Z,2.43
2019-05-12T05:45:36.237Z,1.93
2019-05-12T05:48:09.739Z,2.00
2019-05-12T05:50:35.965Z,2.00
2019-05-12T05:53:09.346Z,2.00
2019-05-12T05:55:35.487Z,1.70
2019-05-12T05:58:10.418Z,1.60
2019-05-12T06:00:39.385Z,2.73
2019-05-12T06:03:14.877Z,1.63
2019-05-12T06:06:10.806Z,1.80
2019-05-12T06:08:33.912Z,1.97
2019-05-12T06:11:04.813Z,1.73
2019-05-12T06:13:34.529Z,1.90
2019-05-12T06:16:04.405Z,2.20
2019-05-12T06:18:33.578Z,2.23
2019-05-12T06:21:03.458Z,2.53
2019-05-12T06:23:34.954Z,1.40
2019-05-12T06:26:04.595Z,1.50
2019-05-12T06:28:39.356Z,1.83
2019-05-12T06:31:05.285Z,1.80
2019-05-12T06:33:36.263Z,1.80
2019-05-12T06:36:07.418Z,1.63
2019-05-12T06:38:37.199Z,1.50
2019-05-12T06:41:07.089Z,1.77
2019-05-12T06:43:39.582Z,1.70
2019-05-12T06:46:06.555Z,1.70
2019-05-12T06:48:35.771Z,1.70
2019-05-12T06:51:09.283Z,1.93
2019-05-12T06:53:35.490Z,2.20
2019-05-12T06:56:09.496Z,1.87
2019-05-12T06:58:35.736Z,1.23
2019-05-12T07:01:10.953Z,1.90
2019-05-12T07:03:37.250Z,1.23
2019-05-12T07:06:25.363Z,1.57
2019-05-12T07:09:03.417Z,1.40
2019-05-12T07:11:24.987Z,1.80
2019-05-12T07:14:03.943Z,1.87
2019-05-12T07:16:30.131Z,1.47
2019-05-12T07:18:55.500Z,2.43
2019-05-12T07:21:27.171Z,1.50
2019-05-12T07:23:54.993Z,2.50
2019-05-12T07:26:23.858Z,3.27
2019-05-12T07:28:54.097Z,2.43
2019-05-12T07:31:23.377Z,1.87
2019-05-12T07:33:54.195Z,1.83
2019-05-12T07:36:24.235Z,1.60
2019-05-12T07:38:58.078Z,1.73
2019-05-12T07:41:25.420Z,1.43
2019-05-12T07:44:00.655Z,1.37
2019-05-12T07:46:28.013Z,1.60
2019-05-12T07:48:57.015Z,1.50
2019-05-12T07:51:30.291Z,1.50
2019-05-12T07:53:58.926Z,1.50
2019-05-12T07:56:32.612Z,1.60
2019-05-12T07:58:58.617Z,1.43
2019-05-12T08:01:27.516Z,1.90
2019-05-12T08:04:01.167Z,1.50
2019-05-12T08:06:27.251Z,1.53
2019-05-12T08:08:59.006Z,1.57
2019-05-12T08:11:28.674Z,1.87
2019-05-12T08:13:58.590Z,2.03
2019-05-12T08:16:30.256Z,1.37
2019-05-12T08:18:58.059Z,1.37
2019-05-12T08:21:26.959Z,1.53
2019-05-12T08:23:55.828Z,2.13
2019-05-12T08:26:24.929Z,1.80
2019-05-12T08:28:53.901Z,1.80
2019-05-12T08:31:31.659Z,0.97
2019-05-12T08:33:56.418Z,1.53
2019-05-12T08:36:25.412Z,1.07
2019-05-12T08:38:54.263Z,1.80
2019-05-12T08:41:23.622Z,1.50
2019-05-12T08:43:57.895Z,2.23
2019-05-12T08:46:24.417Z,2.00
2019-05-12T08:48:57.968Z,1.50
2019-05-12T08:51:24.964Z,1.40
2019-05-12T08:54:02.330Z,1.47
2019-05-12T08:56:26.290Z,1.47
2019-05-12T08:58:55.494Z,1.43
2019-05-12T09:01:26.597Z,1.47
2019-05-12T09:04:00.262Z,1.47
2019-05-12T09:06:27.522Z,1.20
2019-05-12T09:08:56.769Z,1.33
2019-05-12T09:11:25.773Z,1.00
2019-05-12T09:14:00.648Z,1.20
2019-05-12T09:16:25.446Z,1.60
2019-05-12T09:18:55.319Z,1.50
2019-05-12T09:21:31.586Z,1.17
2019-05-12T09:23:56.099Z,1.37
2019-05-12T09:26:28.382Z,1.30
2019-05-12T09:28:55.793Z,1.00
2019-05-12T09:31:29.157Z,1.30
2019-05-12T09:33:55.511Z,1.60
2019-05-12T09:36:26.325Z,1.10
2019-05-12T09:39:01.619Z,0.90
2019-05-12T09:41:25.689Z,1.63
2019-05-12T09:43:54.670Z,1.07
2019-05-12T09:46:28.210Z,1.57
2019-05-12T09:48:55.135Z,1.07
2019-05-12T09:51:24.217Z,0.97
2019-05-12T09:53:55.340Z,1.00
2019-05-12T09:56:24.000Z,1.30
2019-05-12T09:59:01.366Z,0.87
2019-05-12T10:01:24.222Z,1.47
2019-05-12T10:03:54.325Z,1.20
2019-05-12T10:06:24.638Z,1.40
2019-05-12T10:08:54.870Z,1.47
2019-05-12T10:11:24.340Z,1.40
2019-05-12T10:13:54.220Z,1.30
2019-05-12T10:16:24.070Z,1.00
2019-05-12T10:18:53.260Z,1.10
2019-05-12T10:21:23.781Z,1.67
2019-05-12T10:24:00.241Z,1.17
2019-05-12T10:26:23.539Z,1.60
2019-05-12T10:28:58.032Z,1.90
2019-05-12T10:31:24.239Z,1.10
2019-05-12T10:33:58.182Z,1.50
2019-05-12T10:36:25.666Z,1.10
2019-05-12T10:38:54.660Z,1.47
2019-05-12T10:41:23.744Z,0.73
2019-05-12T10:43:56.010Z,1.67
2019-05-12T10:46:28.320Z,0.80
2019-05-12T10:48:54.223Z,0.90
2019-05-12T10:51:23.884Z,0.90
2019-05-12T10:53:59.833Z,1.20
2019-05-12T10:56:24.210Z,1.00
2019-05-12T10:58:56.154Z,1.10
2019-05-12T11:01:25.045Z,1.03
2019-05-12T11:03:54.109Z,1.27
2019-05-12T11:06:24.393Z,1.00
2019-05-12T11:08:54.332Z,1.00
2019-05-12T11:11:24.074Z,1.27
2019-05-12T11:13:53.813Z,0.87
2019-05-12T11:16:31.037Z,0.87
2019-05-12T11:18:54.234Z,0.70
2019-05-12T11:21:23.468Z,0.63
2019-05-12T11:23:54.361Z,1.10
2019-05-12T11:26:23.471Z,1.00
2019-05-12T11:28:53.205Z,1.70
2019-05-12T11:31:24.292Z,0.70
2019-05-12T11:33:54.138Z,0.87
2019-05-12T11:36:24.242Z,1.10
2019-05-12T11:38:54.052Z,1.03
2019-05-12T11:41:28.273Z,1.20
2019-05-12T11:43:53.593Z,0.97
2019-05-12T11:46:23.872Z,1.07
2019-05-12T11:48:53.827Z,1.17
2019-05-12T11:51:26.955Z,1.03
2019-05-12T11:53:53.665Z,1.00
2019-05-12T11:56:24.446Z,1.27
2019-05-12T11:58:54.195Z,0.70
2019-05-12T12:01:24.883Z,0.60
2019-05-12T12:03:54.687Z,1.30
2019-05-12T12:06:25.342Z,0.90
2019-05-12T12:08:55.205Z,0.70
2019-05-12T12:11:27.553Z,0.80
2019-05-12T12:13:54.659Z,1.00
2019-05-12T12:16:23.835Z,0.80
2019-05-12T12:19:02.380Z,0.80
2019-05-12T12:21:25.582Z,0.90
2019-05-12T12:23:54.503Z,1.17
2019-05-12T12:26:28.775Z,1.00
2019-05-12T12:28:57.380Z,1.10
2019-05-12T12:31:29.690Z,0.70
2019-05-12T12:33:56.715Z,0.80
2019-05-12T12:36:26.936Z,0.97
2019-05-12T12:38:55.819Z,1.00
2019-05-12T12:41:24.828Z,0.57
2019-05-12T12:43:54.155Z,0.60
2019-05-12T12:46:24.646Z,0.60
2019-05-12T12:48:54.254Z,0.80
2019-05-12T12:51:23.674Z,0.30
2019-05-12T12:53:54.104Z,0.97
2019-05-12T12:56:25.092Z,0.63
2019-05-12T12:58:55.410Z,0.90
2019-05-12T13:01:28.600Z,0.90
2019-05-12T13:03:59.444Z,1.00
2019-05-12T13:06:27.920Z,0.90
2019-05-12T13:08:56.736Z,0.80
2019-05-12T13:11:33.261Z,1.17
2019-05-12T13:13:56.304Z,0.60
2019-05-12T13:16:25.267Z,0.80
2019-05-12T13:18:54.183Z,0.80
2019-05-12T13:21:23.154Z,1.10
2019-05-12T13:23:53.976Z,0.60
2019-05-12T13:26:23.859Z,0.67
2019-05-12T13:28:54.937Z,1.03
2019-05-12T13:31:24.361Z,0.90
2019-05-12T13:33:54.806Z,0.53
2019-05-12T13:36:24.322Z,1.20
2019-05-12T13:38:53.311Z,0.87
2019-05-12T13:41:22.281Z,0.80
2019-05-12T13:43:58.070Z,0.90
2019-05-12T13:46:23.727Z,0.83
2019-05-12T13:48:57.632Z,0.50
2019-05-12T13:51:24.558Z,0.70
2019-05-12T13:53:53.635Z,0.67
2019-05-12T13:56:25.823Z,1.00
2019-05-12T13:58:54.036Z,1.00
2019-05-12T14:01:24.928Z,0.77
2019-05-12T14:03:53.983Z,0.80
2019-05-12T14:06:31.557Z,1.10
2019-05-12T14:08:53.978Z,0.90
2019-05-12T14:11:23.867Z,0.57
2019-05-12T14:13:53.127Z,0.97
2019-05-12T14:16:23.922Z,0.90
2019-05-12T14:18:58.743Z,1.00
2019-05-12T14:21:24.452Z,0.67
2019-05-12T14:23:53.540Z,1.10
2019-05-12T14:26:24.222Z,0.70
2019-05-12T14:28:53.320Z,0.97
2019-05-12T14:31:27.468Z,1.20
2019-05-12T14:33:53.949Z,1.23
2019-05-12T14:36:26.462Z,0.93
2019-05-12T14:38:53.656Z,0.50
2019-05-12T14:41:24.826Z,0.70
2019-05-12T14:44:01.427Z,0.90
2019-05-12T14:46:24.207Z,0.80
2019-05-12T14:48:54.277Z,0.80
2019-05-12T14:51:24.568Z,1.03
2019-05-12T14:53:53.624Z,1.10
2019-05-12T14:56:23.371Z,1.07
2019-05-12T14:58:56.356Z,1.07
2019-05-12T15:01:23.902Z,0.80
2019-05-12T15:03:54.664Z,0.73
2019-05-12T15:06:25.569Z,0.60
2019-05-12T15:08:54.230Z,0.77
2019-05-12T15:11:23.724Z,0.90
2019-05-12T15:13:54.163Z,1.33
2019-05-12T15:16:23.805Z,0.73
2019-05-12T15:18:54.132Z,0.60
2019-05-12T15:21:27.424Z,0.70
2019-05-12T15:23:53.593Z,1.13
2019-05-12T15:26:24.200Z,0.77
2019-05-12T15:28:54.273Z,0.83
2019-05-12T15:31:23.703Z,0.90
2019-05-12T15:33:52.919Z,1.00
2019-05-12T15:36:21.797Z,0.67
2019-05-12T15:38:55.787Z,0.57
2019-05-12T15:41:21.222Z,0.83
2019-05-12T15:43:52.933Z,0.97
2019-05-12T15:46:20.566Z,0.80
2019-05-12T15:48:50.148Z,0.97
2019-05-12T15:51:19.151Z,0.80
2019-05-12T15:53:48.056Z,0.67
2019-05-12T15:56:23.123Z,0.77
2019-05-12T15:58:47.659Z,0.60
2019-05-12T16:01:17.114Z,0.50
2019-05-12T16:03:46.177Z,0.70
2019-05-12T16:06:15.084Z,0.87
2019-05-12T16:08:45.378Z,0.80
2019-05-12T16:11:14.361Z,0.67
2019-05-12T16:13:44.925Z,0.77
2019-05-12T16:16:14.359Z,0.50
2019-05-12T16:18:46.711Z,0.97
2019-05-12T16:21:14.726Z,0.90
2019-05-12T16:23:44.724Z,0.77
2019-05-12T16:26:15.369Z,0.90
2019-05-12T16:28:44.404Z,0.70
2019-05-12T16:31:14.486Z,0.67
2019-05-12T16:33:43.785Z,1.00
2019-05-12T16:36:14.637Z,0.70
2019-05-12T16:38:44.487Z,0.67
2019-05-12T16:41:14.350Z,0.60
2019-05-12T16:43:44.169Z,0.93
2019-05-12T16:46:14.243Z,0.50
2019-05-12T16:48:48.182Z,0.77
2019-05-12T16:51:14.153Z,1.03
2019-05-12T16:53:43.637Z,0.30
2019-05-12T16:56:14.794Z,1.03
2019-05-12T16:58:43.537Z,0.80
2019-05-12T17:01:19.477Z,0.87
2019-05-12T17:03:47.358Z,0.60
2019-05-12T17:06:16.313Z,0.60
2019-05-12T17:08:45.307Z,0.67
2019-05-12T17:11:27.303Z,0.70
2019-05-12T17:13:47.407Z,0.73
2019-05-12T17:16:15.305Z,0.70
2019-05-12T17:18:44.452Z,0.80
2019-05-12T17:21:14.328Z,0.77
2019-05-12T17:23:43.370Z,0.60
2019-05-12T17:26:14.130Z,0.50
2019-05-12T17:28:43.605Z,0.70
2019-05-12T17:31:12.587Z,0.87
2019-05-12T17:33:42.095Z,0.60
2019-05-12T17:36:12.313Z,0.70
2019-05-12T17:38:43.824Z,0.40
2019-05-12T17:41:15.557Z,0.80
2019-05-12T17:43:52.059Z,0.70
2019-05-12T17:46:17.931Z,1.10
2019-05-12T17:48:44.952Z,0.70
2019-05-12T17:51:14.081Z,0.73
2019-05-12T17:53:43.364Z,0.80
2019-05-12T17:56:13.900Z,0.83
2019-05-12T17:58:46.924Z,0.80
2019-05-12T18:01:14.337Z,0.97
2019-05-12T18:03:48.767Z,0.80
2019-05-12T18:06:14.571Z,0.70
2019-05-12T18:08:44.251Z,0.70
2019-05-12T18:11:15.941Z,0.70
2019-05-12T18:13:45.515Z,0.87
2019-05-12T18:16:20.420Z,0.70
2019-05-12T18:18:44.986Z,0.83
2019-05-12T18:21:21.670Z,0.50
2019-05-12T18:23:44.255Z,0.50
2019-05-12T18:26:15.998Z,0.70
2019-05-12T18:28:44.207Z,0.60
2019-05-12T18:31:13.940Z,0.70
2019-05-12T18:33:52.016Z,0.67
2019-05-12T18:36:14.417Z,0.70
2019-05-12T18:38:44.661Z,0.63
2019-05-12T18:41:14.458Z,0.57
2019-05-12T18:43:43.643Z,0.63
2019-05-12T18:46:14.057Z,0.43
2019-05-12T18:48:43.369Z,0.93
2019-05-12T18:51:16.397Z,0.90
2019-05-12T18:53:43.802Z,0.57
2019-05-12T18:56:19.771Z,0.70
2019-05-12T18:58:44.485Z,0.70
2019-05-12T19:01:14.086Z,0.80
2019-05-12T19:03:50.607Z,1.03
2019-05-12T19:06:14.241Z,0.97
2019-05-12T19:08:43.337Z,0.73
2019-05-12T19:11:19.975Z,0.50
2019-05-12T19:13:51.347Z,0.60
2019-05-12T19:16:14.365Z,0.90
2019-05-12T19:18:43.582Z,1.00
2019-05-12T19:21:16.573Z,0.83
2019-05-12T19:23:43.539Z,0.60
2019-05-12T19:26:13.597Z,0.50
2019-05-12T19:28:52.583Z,0.93
2019-05-12T19:31:14.158Z,0.63
2019-05-12T19:33:52.980Z,0.63
2019-05-12T19:36:16.909Z,0.70
2019-05-12T19:38:46.492Z,0.70
2019-05-12T19:41:15.496Z,0.70
2019-05-12T19:43:45.392Z,0.93
2019-05-12T19:46:24.172Z,1.03
2019-05-12T19:48:53.934Z,0.80
2019-05-12T19:51:27.222Z,1.00
2019-05-12T19:53:53.989Z,0.80
2019-05-12T19:56:23.876Z,0.97
2019-05-12T19:58:53.803Z,1.30
2019-05-12T20:01:31.888Z,0.90
2019-05-12T20:03:55.823Z,0.90
2019-05-12T20:06:24.422Z,0.90
2019-05-12T20:09:05.429Z,1.17
2019-05-12T20:11:26.521Z,0.70
2019-05-12T20:13:54.534Z,0.80
2019-05-12T20:16:29.782Z,0.83
2019-05-12T20:18:57.613Z,0.77
2019-05-12T20:21:25.910Z,0.80
2019-05-12T20:23:55.005Z,1.00
2019-05-12T20:26:23.905Z,1.10
2019-05-12T20:28:55.498Z,0.73
2019-05-12T20:31:27.112Z,0.70
2019-05-12T20:34:03.441Z,0.90
2019-05-12T20:36:25.940Z,1.00
2019-05-12T20:38:55.904Z,0.77
2019-05-12T20:41:26.819Z,1.13
2019-05-12T20:43:55.368Z,0.80
2019-05-12T20:46:26.037Z,0.53
2019-05-12T20:48:55.096Z,1.03
2019-05-12T20:51:24.486Z,0.70
2019-05-12T20:53:53.600Z,0.57
2019-05-12T20:56:24.911Z,0.73
2019-05-12T20:58:52.987Z,1.03
2019-05-12T21:01:28.243Z,0.70
2019-05-12T21:03:52.420Z,1.57
2019-05-12T21:06:23.513Z,1.33
2019-05-12T21:08:53.467Z,0.80
2019-05-12T21:11:24.545Z,0.77
2019-05-12T21:13:54.599Z,1.23
2019-05-12T21:16:31.326Z,0.77
2019-05-12T21:19:06.634Z,0.70
2019-05-12T21:21:33.298Z,1.20
2019-05-12T21:23:59.550Z,1.10
2019-05-12T21:26:28.473Z,1.23
2019-05-12T21:28:57.935Z,0.80
2019-05-12T21:31:30.812Z,1.17
2019-05-12T21:33:57.223Z,0.77
2019-05-12T21:36:27.454Z,0.90
2019-05-12T21:38:59.526Z,0.80
2019-05-12T21:41:27.606Z,1.10
2019-05-12T21:44:00.051Z,0.90
2019-05-12T21:46:27.144Z,0.93
2019-05-12T21:48:56.241Z,0.83
2019-05-12T21:51:26.444Z,1.00
2019-05-12T21:53:56.227Z,0.90
2019-05-12T21:56:25.863Z,0.70
2019-05-12T21:58:58.157Z,0.87
2019-05-12T22:01:25.580Z,0.70
2019-05-12T22:04:01.988Z,1.03
2019-05-12T22:06:25.114Z,0.80
2019-05-12T22:09:01.136Z,1.00
2019-05-12T22:11:26.147Z,1.10
2019-05-12T22:14:00.138Z,1.00
2019-05-12T22:16:29.570Z,1.07
2019-05-12T22:18:59.493Z,0.60
2019-05-12T22:21:26.712Z,1.00
2019-05-12T22:23:56.332Z,0.90
2019-05-12T22:26:25.279Z,1.10
2019-05-12T22:28:54.283Z,1.10
2019-05-12T22:31:24.227Z,0.90
2019-05-12T22:33:56.241Z,0.83
2019-05-12T22:36:26.045Z,1.00
2019-05-12T22:39:00.554Z,1.60
2019-05-12T22:41:24.639Z,1.10
2019-05-12T22:43:53.897Z,1.20
2019-05-12T22:46:31.141Z,0.90
2019-05-12T22:48:53.583Z,1.40
2019-05-12T22:51:24.490Z,1.30
2019-05-12T22:53:53.945Z,0.90
2019-05-12T22:56:23.745Z,0.60
2019-05-12T22:59:00.213Z,0.90
2019-05-12T23:01:23.570Z,2.00
2019-05-12T23:03:55.875Z,0.90
2019-05-12T23:06:26.751Z,1.17
2019-05-12T23:08:54.266Z,1.43
2019-05-12T23:11:31.782Z,0.90
2019-05-12T23:13:53.837Z,0.80
2019-05-12T23:16:25.818Z,1.30
2019-05-12T23:18:53.802Z,1.70
2019-05-12T23:21:24.214Z,0.80
2019-05-12T23:23:57.446Z,0.80
2019-05-12T23:26:25.401Z,0.83
2019-05-12T23:28:54.284Z,0.97
2019-05-12T23:31:26.002Z,1.30
2019-05-12T23:33:54.360Z,1.73
2019-05-12T23:36:35.611Z,1.10
2019-05-12T23:39:00.596Z,0.90
2019-05-12T23:41:25.461Z,0.80
2019-05-12T23:43:54.411Z,1.10
2019-05-12T23:46:23.627Z,1.00
2019-05-12T23:48:54.322Z,1.20
2019-05-12T23:51:23.643Z,0.97
2019-05-12T23:53:52.719Z,0.93
2019-05-12T23:56:21.627Z,1.27
2019-05-12T23:58:50.486Z,1.33
